createdAt,value
2022-10-08T00:01:00.564Z,11.30
2022-10-08T00:04:03.501Z,11.20
2022-10-08T00:07:05.351Z,11.20
2022-10-08T00:10:08.164Z,11.20
2022-10-08T00:13:09.994Z,11.20
2022-10-08T00:16:22.861Z,11.10
2022-10-08T00:19:24.764Z,11.10
2022-10-08T00:22:26.590Z,11.10
2022-10-08T00:25:28.540Z,11.20
2022-10-08T00:28:30.418Z,11.10
2022-10-08T00:31:37.409Z,11.10
2022-10-08T00:34:39.978Z,11.00
2022-10-08T00:37:42.038Z,10.90
2022-10-08T00:40:44.239Z,10.90
2022-10-08T00:43:48.260Z,10.90
2022-10-08T00:46:50.053Z,10.80
2022-10-08T00:49:54.819Z,10.80
2022-10-08T00:52:58.534Z,10.70
2022-10-08T00:56:00.345Z,10.70
2022-10-08T00:59:02.344Z,10.70
2022-10-08T01:02:08.312Z,10.70
2022-10-08T01:05:11.235Z,10.70
2022-10-08T01:08:35.859Z,10.70
2022-10-08T01:11:40.789Z,10.70
2022-10-08T01:15:02.324Z,10.60
2022-10-08T01:18:20.375Z,10.60
2022-10-08T01:21:37.276Z,10.60
2022-10-08T01:25:06.701Z,10.60
2022-10-08T01:28:25.498Z,10.50
2022-10-08T01:31:32.427Z,10.50
2022-10-08T01:34:37.723Z,10.40
2022-10-08T01:37:40.752Z,10.40
2022-10-08T01:40:42.611Z,10.40
2022-10-08T01:43:47.752Z,10.40
2022-10-08T01:46:49.768Z,10.30
2022-10-08T01:49:53.759Z,10.30
2022-10-08T01:53:01.850Z,10.20
2022-10-08T01:56:04.390Z,10.20
2022-10-08T01:59:15.599Z,10.20
2022-10-08T02:02:22.516Z,10.20
2022-10-08T02:05:24.411Z,10.20
2022-10-08T02:08:26.531Z,10.10
2022-10-08T02:11:28.908Z,10.10
2022-10-08T02:14:31.038Z,10.00
2022-10-08T02:18:06.313Z,10.00
2022-10-08T02:21:20.171Z,9.90
2022-10-08T02:24:26.909Z,9.90
2022-10-08T02:27:55.448Z,9.90
2022-10-08T02:31:31.117Z,9.80
2022-10-08T02:34:38.520Z,9.80
2022-10-08T02:37:53.424Z,9.90
2022-10-08T02:40:56.781Z,9.80
2022-10-08T02:43:59.731Z,9.80
2022-10-08T02:47:03.096Z,9.80
2022-10-08T02:50:12.020Z,9.70
2022-10-08T02:53:14.685Z,9.70
2022-10-08T02:56:18.635Z,9.60
2022-10-08T02:59:20.475Z,9.60
2022-10-08T03:02:55.949Z,9.50
2022-10-08T03:05:57.844Z,9.60
2022-10-08T03:09:00.144Z,9.50
2022-10-08T03:12:01.969Z,9.50
2022-10-08T03:15:04.009Z,9.50
2022-10-08T03:18:08.448Z,9.40
2022-10-08T03:21:10.811Z,9.50
2022-10-08T03:24:13.256Z,9.40
2022-10-08T03:27:15.068Z,9.40
2022-10-08T03:30:17.010Z,9.40
2022-10-08T03:33:18.844Z,9.40
2022-10-08T03:36:21.473Z,9.30
2022-10-08T03:39:23.211Z,9.30
2022-10-08T03:42:25.071Z,9.30
2022-10-08T03:45:26.893Z,9.20
2022-10-08T03:48:28.910Z,9.20
2022-10-08T03:51:30.707Z,9.10
2022-10-08T03:54:35.452Z,9.10
2022-10-08T03:57:37.289Z,9.00
2022-10-08T04:00:39.240Z,9.10
2022-10-08T04:03:41.287Z,9.10
2022-10-08T04:06:43.130Z,9.10
2022-10-08T04:09:44.932Z,9.00
2022-10-08T04:12:47.092Z,9.00
2022-10-08T04:15:50.829Z,9.00
2022-10-08T04:18:52.756Z,9.00
2022-10-08T04:21:54.555Z,9.00
2022-10-08T04:24:56.471Z,9.00
2022-10-08T04:27:58.323Z,9.00
2022-10-08T04:31:01.123Z,9.00
2022-10-08T04:34:02.980Z,9.00
2022-10-08T04:37:04.850Z,8.90
2022-10-08T04:40:07.263Z,9.00
2022-10-08T04:43:09.118Z,9.00
2022-10-08T04:46:12.438Z,8.90
2022-10-08T04:49:14.343Z,8.90
2022-10-08T04:52:18.881Z,8.90
2022-10-08T04:55:20.674Z,8.90
2022-10-08T04:58:23.617Z,8.90
2022-10-08T05:01:25.831Z,9.00
2022-10-08T05:04:27.859Z,8.90
2022-10-08T05:07:29.716Z,8.90
2022-10-08T05:10:31.557Z,8.90
2022-10-08T05:13:33.439Z,8.90
2022-10-08T05:16:35.427Z,8.90
2022-10-08T05:19:37.396Z,8.90
2022-10-08T05:22:39.255Z,8.90
2022-10-08T05:25:41.107Z,8.90
2022-10-08T05:28:43.903Z,8.90
2022-10-08T05:31:45.833Z,8.90
2022-10-08T05:34:47.723Z,8.90
2022-10-08T05:37:49.571Z,8.90
2022-10-08T05:40:51.387Z,8.90
2022-10-08T05:43:56.689Z,8.90
2022-10-08T05:46:58.740Z,8.80
2022-10-08T05:50:00.640Z,8.80
2022-10-08T05:53:04.526Z,8.80
2022-10-08T05:56:10.328Z,8.70
2022-10-08T05:59:22.865Z,8.70
2022-10-08T06:02:24.733Z,8.70
2022-10-08T06:05:27.234Z,8.70
2022-10-08T06:08:29.081Z,8.70
2022-10-08T06:11:32.002Z,8.60
2022-10-08T06:14:33.860Z,8.70
2022-10-08T06:17:35.717Z,8.60
2022-10-08T06:20:37.716Z,8.70
2022-10-08T06:23:40.522Z,8.70
2022-10-08T06:26:42.539Z,8.80
2022-10-08T06:29:44.488Z,8.70
2022-10-08T06:32:46.680Z,8.70
2022-10-08T06:35:48.671Z,8.70
2022-10-08T06:38:57.468Z,8.60
2022-10-08T06:41:59.332Z,8.60
2022-10-08T06:45:11.281Z,8.80
2022-10-08T06:48:13.471Z,8.70
2022-10-08T06:51:16.496Z,8.70
2022-10-08T06:54:18.328Z,8.80
2022-10-08T06:57:20.357Z,8.80
2022-10-08T07:00:22.157Z,8.80
2022-10-08T07:03:24.028Z,8.90
2022-10-08T07:06:26.008Z,8.90
2022-10-08T07:09:27.836Z,8.90
2022-10-08T07:12:30.163Z,9.00
2022-10-08T07:15:32.791Z,9.10
2022-10-08T07:18:34.693Z,9.10
2022-10-08T07:21:36.496Z,9.30
2022-10-08T07:24:38.336Z,9.30
2022-10-08T07:27:44.760Z,9.40
2022-10-08T07:30:46.830Z,9.50
2022-10-08T07:33:48.767Z,9.60
2022-10-08T07:36:50.611Z,9.70
2022-10-08T07:39:52.416Z,9.70
2022-10-08T07:42:54.819Z,9.80
2022-10-08T07:45:56.744Z,9.90
2022-10-08T07:49:01.809Z,10.00
2022-10-08T07:52:03.694Z,10.20
2022-10-08T07:55:05.821Z,10.50
2022-10-08T07:58:07.705Z,11.10
2022-10-08T08:01:12.041Z,11.90
2022-10-08T08:04:14.734Z,12.70
2022-10-08T08:07:16.572Z,13.80
2022-10-08T08:10:18.379Z,14.70
2022-10-08T08:13:20.203Z,15.60
2022-10-08T08:16:23.125Z,16.10
2022-10-08T08:19:25.024Z,16.60
2022-10-08T08:22:26.879Z,17.20
2022-10-08T08:25:28.788Z,17.50
2022-10-08T08:28:30.844Z,17.90
2022-10-08T08:31:34.624Z,18.30
2022-10-08T08:34:36.583Z,18.60
2022-10-08T08:37:38.381Z,18.80
2022-10-08T08:40:40.208Z,18.70
2022-10-08T08:43:42.127Z,19.00
2022-10-08T08:46:46.909Z,19.20
2022-10-08T08:50:01.390Z,19.50
2022-10-08T08:53:03.973Z,19.60
2022-10-08T08:56:06.422Z,20.10
2022-10-08T08:59:28.395Z,20.30
2022-10-08T09:02:36.146Z,20.70
2022-10-08T09:05:40.842Z,21.10
2022-10-08T09:08:45.866Z,21.40
2022-10-08T09:11:47.717Z,21.70
2022-10-08T09:14:54.761Z,22.10
2022-10-08T09:17:56.647Z,21.90
2022-10-08T09:20:58.521Z,21.90
2022-10-08T09:24:00.863Z,22.30
2022-10-08T09:27:02.673Z,22.30
2022-10-08T09:30:12.764Z,22.60
2022-10-08T09:33:25.224Z,22.50
2022-10-08T09:36:46.362Z,23.00
2022-10-08T09:40:13.825Z,23.20
2022-10-08T09:43:18.711Z,23.60
2022-10-08T09:46:31.503Z,23.50
2022-10-08T09:49:34.959Z,23.80
2022-10-08T09:52:36.765Z,24.10
2022-10-08T09:55:38.611Z,24.10
2022-10-08T09:58:54.185Z,24.30
2022-10-08T10:01:56.713Z,24.30
2022-10-08T10:04:59.335Z,24.00
2022-10-08T10:08:01.254Z,24.10
2022-10-08T10:11:03.079Z,24.40
2022-10-08T10:14:16.784Z,24.40
2022-10-08T10:17:30.657Z,24.40
2022-10-08T10:20:42.014Z,24.40
2022-10-08T10:23:49.549Z,24.30
2022-10-08T10:26:51.510Z,24.30
2022-10-08T10:30:19.957Z,24.20
2022-10-08T10:33:24.653Z,23.10
2022-10-08T10:36:29.861Z,22.10
2022-10-08T10:39:52.547Z,21.80
2022-10-08T10:43:19.935Z,21.10
2022-10-08T10:46:41.946Z,20.10
2022-10-08T10:49:43.807Z,19.40
2022-10-08T10:52:45.977Z,18.80
2022-10-08T10:55:54.866Z,18.40
2022-10-08T10:59:17.875Z,18.10
2022-10-08T11:02:38.252Z,17.70
2022-10-08T11:05:40.128Z,17.30
2022-10-08T11:08:48.115Z,16.90
2022-10-08T11:11:56.243Z,16.80
2022-10-08T11:15:19.951Z,16.80
2022-10-08T11:18:46.350Z,16.80
2022-10-08T11:22:10.200Z,16.60
2022-10-08T11:25:18.854Z,16.40
2022-10-08T11:28:34.568Z,16.40
2022-10-08T11:31:40.191Z,16.50
2022-10-08T11:34:53.622Z,16.50
2022-10-08T11:37:55.384Z,16.60
2022-10-08T11:41:07.075Z,16.80
2022-10-08T11:44:09.615Z,17.00
2022-10-08T11:47:35.549Z,17.20
2022-10-08T11:50:37.538Z,17.40
2022-10-08T11:53:39.392Z,17.90
2022-10-08T11:56:52.186Z,18.20
2022-10-08T12:00:12.340Z,18.60
2022-10-08T12:03:40.992Z,18.70
2022-10-08T12:06:42.851Z,19.00
2022-10-08T12:10:04.589Z,19.50
2022-10-08T12:13:11.953Z,19.80
2022-10-08T12:16:16.024Z,19.80
2022-10-08T12:19:33.158Z,19.90
2022-10-08T12:22:34.937Z,20.00
2022-10-08T12:25:45.944Z,20.30
2022-10-08T12:28:50.733Z,20.40
2022-10-08T12:32:01.164Z,20.50
2022-10-08T12:35:03.052Z,20.90
2022-10-08T12:38:13.635Z,20.80
2022-10-08T12:41:28.502Z,20.70
2022-10-08T12:44:33.801Z,20.80
2022-10-08T12:47:58.804Z,20.30
2022-10-08T12:51:23.813Z,20.40
2022-10-08T12:54:26.984Z,20.20
2022-10-08T12:57:39.064Z,20.20
2022-10-08T13:00:40.874Z,20.20
2022-10-08T13:03:42.744Z,20.30
2022-10-08T13:06:44.815Z,20.60
2022-10-08T13:09:46.623Z,20.80
2022-10-08T13:13:05.384Z,20.70
2022-10-08T13:16:14.344Z,20.50
2022-10-08T13:19:24.976Z,20.20
2022-10-08T13:22:26.823Z,20.40
2022-10-08T13:25:37.365Z,20.40
2022-10-08T13:28:59.329Z,20.30
2022-10-08T13:32:11.255Z,20.10
2022-10-08T13:35:17.490Z,19.90
2022-10-08T13:38:25.001Z,19.80
2022-10-08T13:41:27.026Z,19.80
2022-10-08T13:44:29.044Z,19.80
2022-10-08T13:47:30.859Z,19.90
2022-10-08T13:50:32.721Z,19.80
2022-10-08T13:53:34.552Z,19.80
2022-10-08T13:56:36.577Z,19.80
2022-10-08T13:59:38.308Z,19.80
2022-10-08T14:02:40.271Z,19.90
2022-10-08T14:05:42.725Z,19.90
2022-10-08T14:08:44.491Z,19.90
2022-10-08T14:11:47.808Z,19.90
2022-10-08T14:14:49.638Z,19.90
2022-10-08T14:17:53.397Z,19.90
2022-10-08T14:20:55.236Z,20.00
2022-10-08T14:23:57.107Z,20.00
2022-10-08T14:26:58.954Z,19.90
2022-10-08T14:30:00.825Z,20.00
2022-10-08T14:33:03.493Z,20.00
2022-10-08T14:36:15.937Z,19.80
2022-10-08T14:39:17.769Z,19.80
2022-10-08T14:42:19.614Z,19.70
2022-10-08T14:45:22.907Z,19.60
2022-10-08T14:48:24.968Z,19.40
2022-10-08T14:51:26.767Z,19.40
2022-10-08T14:54:28.614Z,19.30
2022-10-08T14:57:30.410Z,19.30
2022-10-08T15:00:32.241Z,19.30
2022-10-08T15:03:34.223Z,19.50
2022-10-08T15:06:36.091Z,19.30
2022-10-08T15:09:40.502Z,19.30
2022-10-08T15:12:42.348Z,19.20
2022-10-08T15:15:44.349Z,19.20
2022-10-08T15:18:46.344Z,19.10
2022-10-08T15:21:48.114Z,19.00
2022-10-08T15:24:49.969Z,18.80
2022-10-08T15:27:51.792Z,18.70
2022-10-08T15:31:06.705Z,18.60
2022-10-08T15:34:15.447Z,18.50
2022-10-08T15:37:17.645Z,18.40
2022-10-08T15:40:19.460Z,18.40
2022-10-08T15:43:21.304Z,18.40
2022-10-08T15:46:26.184Z,18.30
2022-10-08T15:49:49.569Z,18.00
2022-10-08T15:52:51.823Z,17.90
2022-10-08T15:55:55.564Z,17.60
2022-10-08T15:59:00.541Z,17.50
2022-10-08T16:02:02.534Z,17.40
2022-10-08T16:05:04.598Z,17.30
2022-10-08T16:08:09.316Z,17.20
2022-10-08T16:11:20.869Z,17.10
2022-10-08T16:14:26.179Z,17.00
2022-10-08T16:17:28.244Z,16.80
2022-10-08T16:20:30.056Z,16.90
2022-10-08T16:23:32.605Z,16.80
2022-10-08T16:26:35.560Z,16.80
2022-10-08T16:29:37.379Z,16.70
2022-10-08T16:32:39.254Z,16.50
2022-10-08T16:35:41.060Z,16.30
2022-10-08T16:38:42.893Z,16.20
2022-10-08T16:41:45.006Z,16.00
2022-10-08T16:44:47.001Z,15.90
2022-10-08T16:47:48.823Z,15.80
2022-10-08T16:50:50.612Z,15.70
2022-10-08T16:53:54.102Z,15.60
2022-10-08T16:56:56.663Z,15.50
2022-10-08T17:00:00.269Z,15.20
2022-10-08T17:03:02.733Z,15.00
2022-10-08T17:06:05.064Z,14.80
2022-10-08T17:09:06.786Z,14.60
2022-10-08T17:12:08.629Z,14.30
2022-10-08T17:15:10.705Z,14.10
2022-10-08T17:18:12.557Z,13.90
2022-10-08T17:21:14.732Z,13.80
2022-10-08T17:24:16.546Z,13.70
2022-10-08T17:27:18.436Z,13.50
2022-10-08T17:30:20.275Z,13.30
2022-10-08T17:33:22.153Z,13.20
2022-10-08T17:36:28.169Z,13.00
2022-10-08T17:39:31.903Z,12.90
2022-10-08T17:42:33.704Z,12.90
2022-10-08T17:45:35.543Z,12.70
2022-10-08T17:48:37.498Z,12.60
2022-10-08T17:51:39.574Z,12.50
2022-10-08T17:54:41.402Z,12.30
2022-10-08T17:57:43.559Z,12.20
2022-10-08T18:00:45.400Z,12.10
2022-10-08T18:03:55.863Z,12.10
2022-10-08T18:07:02.506Z,12.00
2022-10-08T18:10:06.058Z,11.90
2022-10-08T18:13:07.882Z,11.80
2022-10-08T18:16:12.995Z,11.70
2022-10-08T18:19:14.944Z,11.70
2022-10-08T18:22:17.043Z,11.60
2022-10-08T18:25:18.929Z,11.60
2022-10-08T18:28:21.985Z,11.50
2022-10-08T18:31:25.845Z,11.40
2022-10-08T18:34:27.708Z,11.40
2022-10-08T18:37:29.565Z,11.30
2022-10-08T18:40:31.429Z,11.20
2022-10-08T18:43:34.821Z,11.20
2022-10-08T18:46:36.883Z,11.20
2022-10-08T18:49:38.751Z,11.20
2022-10-08T18:52:40.567Z,11.20
2022-10-08T18:55:48.777Z,11.10
2022-10-08T18:58:52.517Z,11.10
2022-10-08T19:01:58.981Z,11.10
2022-10-08T19:05:01.137Z,11.10
2022-10-08T19:08:02.956Z,11.10
2022-10-08T19:11:15.786Z,11.00
2022-10-08T19:14:18.320Z,10.90
2022-10-08T19:17:20.202Z,10.70
2022-10-08T19:20:22.059Z,10.60
2022-10-08T19:23:23.909Z,10.50
2022-10-08T19:26:26.215Z,10.40
2022-10-08T19:29:29.393Z,10.40
2022-10-08T19:32:31.428Z,10.40
2022-10-08T19:35:33.332Z,10.40
2022-10-08T19:38:35.359Z,10.50
2022-10-08T19:41:37.500Z,10.50
2022-10-08T19:44:39.336Z,10.50
2022-10-08T19:47:41.208Z,10.50
2022-10-08T19:50:43.057Z,10.40
2022-10-08T19:53:44.987Z,10.40
2022-10-08T19:56:46.807Z,10.40
2022-10-08T19:59:48.648Z,10.30
2022-10-08T20:02:51.088Z,10.30
2022-10-08T20:05:53.577Z,10.20
2022-10-08T20:08:56.972Z,10.20
2022-10-08T20:11:58.775Z,10.20
2022-10-08T20:15:00.612Z,10.10
2022-10-08T20:18:02.564Z,10.20
2022-10-08T20:21:06.276Z,10.20
2022-10-08T20:24:08.140Z,10.20
2022-10-08T20:27:09.979Z,10.20
2022-10-08T20:30:12.174Z,10.10
2022-10-08T20:33:14.006Z,10.10
2022-10-08T20:36:16.611Z,10.10
2022-10-08T20:39:18.576Z,10.10
2022-10-08T20:42:20.392Z,10.10
2022-10-08T20:45:22.246Z,10.10
2022-10-08T20:48:24.083Z,10.00
2022-10-08T20:51:26.353Z,10.00
2022-10-08T20:54:28.169Z,10.00
2022-10-08T20:57:29.971Z,10.00
2022-10-08T21:00:32.554Z,10.00
2022-10-08T21:03:36.232Z,10.00
2022-10-08T21:06:40.330Z,10.00
2022-10-08T21:09:42.116Z,9.90
2022-10-08T21:12:43.945Z,9.90
2022-10-08T21:15:45.813Z,9.80
2022-10-08T21:18:51.869Z,9.90
2022-10-08T21:21:53.740Z,9.90
2022-10-08T21:24:55.546Z,9.90
2022-10-08T21:27:57.331Z,10.00
2022-10-08T21:31:03.281Z,10.00
2022-10-08T21:34:06.132Z,10.00
2022-10-08T21:37:11.666Z,10.00
2022-10-08T21:40:15.753Z,10.00
2022-10-08T21:43:17.585Z,10.00
2022-10-08T21:46:21.151Z,10.00
2022-10-08T21:49:24.093Z,10.00
2022-10-08T21:52:25.965Z,10.00
2022-10-08T21:55:28.277Z,10.00
2022-10-08T21:58:31.633Z,9.90
2022-10-08T22:01:38.577Z,9.90
2022-10-08T22:04:40.487Z,9.80
2022-10-08T22:07:42.295Z,9.70
2022-10-08T22:10:44.200Z,9.60
2022-10-08T22:13:46.049Z,9.60
2022-10-08T22:16:48.072Z,9.60
2022-10-08T22:19:49.939Z,9.60
2022-10-08T22:22:51.782Z,9.60
2022-10-08T22:25:54.047Z,9.50
2022-10-08T22:28:56.184Z,9.50
2022-10-08T22:31:58.360Z,9.50
2022-10-08T22:35:00.198Z,9.40
2022-10-08T22:38:02.161Z,9.40
2022-10-08T22:41:05.159Z,9.40
2022-10-08T22:44:07.013Z,9.30
2022-10-08T22:47:08.856Z,9.30
2022-10-08T22:50:10.745Z,9.30
2022-10-08T22:53:13.240Z,9.30
2022-10-08T22:56:19.968Z,9.30
2022-10-08T22:59:21.891Z,9.30
2022-10-08T23:02:23.767Z,9.30
2022-10-08T23:05:25.662Z,9.30
2022-10-08T23:08:27.501Z,9.30
2022-10-08T23:11:29.515Z,9.30
2022-10-08T23:14:31.372Z,9.30
2022-10-08T23:17:33.225Z,9.30
2022-10-08T23:20:36.016Z,9.30
2022-10-08T23:23:37.889Z,9.20
2022-10-08T23:26:39.725Z,9.20
2022-10-08T23:29:41.592Z,9.20
2022-10-08T23:32:43.422Z,9.20
2022-10-08T23:35:45.276Z,9.20
2022-10-08T23:38:47.266Z,9.10
2022-10-08T23:41:49.135Z,9.10
2022-10-08T23:44:50.993Z,9.10
2022-10-08T23:47:53.193Z,9.20
2022-10-08T23:50:55.031Z,9.30
2022-10-08T23:53:56.856Z,9.30
2022-10-08T23:56:58.787Z,9.30
